Time,TemperatureF,DewpointF,PressureIn,WindDirection,WindDirectionDegrees,WindSpeedMPH,WindSpeedGustMPH,Humidity,HourlyPrecipIn,Conditions,Clouds,dailyrainin,SoftwareType,DateUTC
2013-02-04 00:00:00,23.4,18.7,29.81,SE,134,5.0,10.0,82,0.00,,,0.00,Wunderground v.1.15,2013-02-04 06:00:00,
2013-02-04 00:06:00,23.5,18.8,29.81,SSE,152,5.0,10.0,82,0.00,,,0.00,Wunderground v.1.15,2013-02-04 06:06:00,
2013-02-04 00:11:00,23.5,18.5,29.81,SE,136,6.0,8.0,81,0.00,,,0.00,Wunderground v.1.15,2013-02-04 06:11:00,
2013-02-04 00:18:00,23.6,18.9,29.81,ENE,75,4.0,8.0,82,0.00,,,0.00,Wunderground v.1.15,2013-02-04 06:18:00,
2013-02-04 00:24:00,23.6,18.9,29.81,ESE,118,2.0,8.0,82,0.00,,,0.00,Wunderground v.1.15,2013-02-04 06:24:00,
2013-02-04 00:30:00,23.8,18.8,29.81,SE,131,2.0,8.0,81,0.00,,,0.00,Wunderground v.1.15,2013-02-04 06:30:00,
2013-02-04 00:36:00,23.9,18.9,29.81,ESE,121,2.0,8.0,81,0.00,,,0.00,Wunderground v.1.15,2013-02-04 06:36:00,
2013-02-04 00:41:00,23.9,18.9,29.80,SE,138,2.0,8.0,81,0.00,,,0.00,Wunderground v.1.15,2013-02-04 06:41:00,
2013-02-04 00:48:00,24.0,19.0,29.80,ESE,121,1.0,8.0,81,0.00,,,0.00,Wunderground v.1.15,2013-02-04 06:48:00,
2013-02-04 00:53:00,24.1,18.8,29.80,ESE,123,2.0,8.0,80,0.00,,,0.00,Wunderground v.1.15,2013-02-04 06:53:00,
2013-02-04 01:00:00,24.3,19.0,29.80,SE,131,2.0,8.0,80,0.00,,,0.00,Wunderground v.1.15,2013-02-04 07:00:00,
2013-02-04 01:06:00,24.3,19.0,29.80,SE,134,2.0,8.0,80,0.00,,,0.00,Wunderground v.1.15,2013-02-04 07:06:00,
2013-02-04 01:11:00,24.4,19.1,29.79,SE,132,2.0,8.0,80,0.00,,,0.00,Wunderground v.1.15,2013-02-04 07:11:00,
2013-02-04 01:18:00,24.4,19.1,29.79,ESE,123,3.0,8.0,80,0.00,,,0.00,Wunderground v.1.15,2013-02-04 07:18:00,
2013-02-04 01:24:00,24.4,19.1,29.79,ESE,119,3.0,8.0,80,0.00,,,0.00,Wunderground v.1.15,2013-02-04 07:24:00,
2013-02-04 01:30:00,24.4,19.1,29.78,SE,131,2.0,8.0,80,0.00,,,0.00,Wunderground v.1.15,2013-02-04 07:30:00,
2013-02-04 01:36:00,24.3,19.0,29.78,ESE,119,2.0,8.0,80,0.00,,,0.00,Wunderground v.1.15,2013-02-04 07:36:00,
2013-02-04 01:41:00,24.2,19.2,29.78,SE,124,1.0,8.0,81,0.00,,,0.00,Wunderground v.1.15,2013-02-04 07:41:00,
2013-02-04 01:48:00,24.1,19.1,29.78,SE,125,1.0,8.0,81,0.00,,,0.00,Wunderground v.1.15,2013-02-04 07:48:00,
2013-02-04 01:54:00,24.2,19.2,29.78,ESE,110,1.0,8.0,81,0.00,,,0.00,Wunderground v.1.15,2013-02-04 07:54:00,
2013-02-04 01:59:00,24.3,19.3,29.78,SE,124,1.0,8.0,81,0.00,,,0.00,Wunderground v.1.15,2013-02-04 07:59:00,
2013-02-04 02:06:00,24.3,19.3,29.78,ESE,119,1.0,8.0,81,0.00,,,0.00,Wunderground v.1.15,2013-02-04 08:06:00,
2013-02-04 02:12:00,24.4,19.4,29.79,NE,54,1.0,8.0,81,0.00,,,0.00,Wunderground v.1.15,2013-02-04 08:12:00,
2013-02-04 02:17:00,24.3,19.3,29.79,ESE,105,0.0,8.0,81,0.00,,,0.00,Wunderground v.1.15,2013-02-04 08:17:00,
2013-02-04 02:24:00,24.1,19.4,29.79,ENE,72,0.0,8.0,82,0.00,,,0.00,Wunderground v.1.15,2013-02-04 08:24:00,
2013-02-04 02:30:00,23.9,19.2,29.79,East,82,0.0,8.0,82,0.00,,,0.00,Wunderground v.1.15,2013-02-04 08:30:00,
2013-02-04 02:36:00,23.7,19.3,29.79,ENE,72,0.0,8.0,83,0.00,,,0.00,Wunderground v.1.15,2013-02-04 08:36:00,
2013-02-04 02:42:00,23.5,19.1,29.79,ESE,105,0.0,8.0,83,0.00,,,0.00,Wunderground v.1.15,2013-02-04 08:42:00,
2013-02-04 02:47:00,23.5,19.1,29.79,ESE,113,0.0,8.0,83,0.00,,,0.00,Wunderground v.1.15,2013-02-04 08:47:00,
2013-02-04 02:54:00,23.4,19.3,29.79,NE,44,0.0,8.0,84,0.00,,,0.00,Wunderground v.1.15,2013-02-04 08:54:00,
2013-02-04 02:59:00,23.4,19.3,29.79,NNE,13,1.0,1.0,84,0.00,,,0.00,Wunderground v.1.15,2013-02-04 08:59:00,
2013-02-04 03:06:00,23.4,19.3,29.79,NE,44,0.0,8.0,84,0.00,,,0.00,Wunderground v.1.15,2013-02-04 09:06:00,
2013-02-04 03:12:00,23.4,19.3,29.79,North,359,1.0,8.0,84,0.00,,,0.00,Wunderground v.1.15,2013-02-04 09:12:00,
2013-02-04 03:17:00,23.4,19.6,29.79,NNE,31,1.0,8.0,85,0.00,,,0.00,Wunderground v.1.15,2013-02-04 09:17:00,
2013-02-04 03:24:00,23.4,19.6,29.79,East,89,1.0,8.0,85,0.00,,,0.00,Wunderground v.1.15,2013-02-04 09:24:00,
2013-02-04 03:30:00,23.4,19.3,29.79,NE,36,2.0,8.0,84,0.00,,,0.00,Wunderground v.1.15,2013-02-04 09:30:00,
2013-02-04 03:36:00,23.4,19.3,29.78,East,85,1.0,8.0,84,0.00,,,0.00,Wunderground v.1.15,2013-02-04 09:36:00,
2013-02-04 03:42:00,23.4,19.3,29.78,East,81,1.0,5.0,84,0.00,,,0.00,Wunderground v.1.15,2013-02-04 09:42:00,
2013-02-04 03:48:00,23.5,19.4,29.78,East,100,1.0,8.0,84,0.00,,,0.00,Wunderground v.1.15,2013-02-04 09:48:00,
2013-02-04 03:54:00,23.5,19.4,29.78,NE,34,1.0,8.0,84,0.00,,,0.00,Wunderground v.1.15,2013-02-04 09:54:00,
2013-02-04 04:00:00,23.4,19.3,29.79,ENE,78,2.0,8.0,84,0.00,,,0.00,Wunderground v.1.15,2013-02-04 10:00:00,
2013-02-04 04:05:00,23.2,19.4,29.79,NE,53,3.0,8.0,85,0.00,,,0.00,Wunderground v.1.15,2013-02-04 10:05:00,
2013-02-04 04:12:00,23.1,19.3,29.79,ENE,75,3.0,8.0,85,0.00,,,0.00,Wunderground v.1.15,2013-02-04 10:12:00,
2013-02-04 04:18:00,23.0,19.2,29.78,ENE,72,2.0,8.0,85,0.00,,,0.00,Wunderground v.1.15,2013-02-04 10:18:00,
2013-02-04 04:23:00,22.9,19.1,29.79,ENE,60,1.0,8.0,85,0.00,,,0.00,Wunderground v.1.15,2013-02-04 10:23:00,
2013-02-04 04:30:00,23.0,19.2,29.79,East,98,2.0,2.0,85,0.00,,,0.00,Wunderground v.1.15,2013-02-04 10:30:00,
2013-02-04 04:35:00,23.0,19.2,29.79,ENE,72,2.0,8.0,85,0.00,,,0.00,Wunderground v.1.15,2013-02-04 10:35:00,
2013-02-04 04:41:00,23.0,19.2,29.79,North,8,2.0,8.0,85,0.00,,,0.00,Wunderground v.1.15,2013-02-04 10:41:00,
2013-02-04 04:48:00,23.0,19.2,29.79,ENE,61,2.0,8.0,85,0.00,,,0.00,Wunderground v.1.15,2013-02-04 10:48:00,
2013-02-04 04:54:00,23.0,19.2,29.80,NE,34,2.0,8.0,85,0.00,,,0.00,Wunderground v.1.15,2013-02-04 10:54:00,
2013-02-04 05:00:00,22.9,19.1,29.80,NE,37,3.0,8.0,85,0.00,,,0.00,Wunderground v.1.15,2013-02-04 11:00:00,
2013-02-04 05:06:00,22.9,19.3,29.80,NE,52,3.0,8.0,86,0.00,,,0.00,Wunderground v.1.15,2013-02-04 11:06:00,
2013-02-04 05:11:00,22.6,19.0,29.80,ENE,68,3.0,8.0,86,0.00,,,0.00,Wunderground v.1.15,2013-02-04 11:11:00,
2013-02-04 05:18:00,22.1,18.8,29.81,NE,44,5.0,8.0,87,0.00,,,0.00,Wunderground v.1.15,2013-02-04 11:18:00,
2013-02-04 05:24:00,21.8,18.8,29.81,NE,50,4.0,8.0,88,0.00,,,0.00,Wunderground v.1.15,2013-02-04 11:24:00,
2013-02-04 05:29:00,21.5,18.5,29.81,ENE,60,4.0,4.0,88,0.00,,,0.00,Wunderground v.1.15,2013-02-04 11:29:00,
2013-02-04 05:36:00,21.4,18.4,29.82,NW,317,4.0,8.0,88,0.00,,,0.00,Wunderground v.1.15,2013-02-04 11:36:00,
2013-02-04 05:41:00,21.2,18.2,29.82,NE,50,4.0,8.0,88,0.00,,,0.00,Wunderground v.1.15,2013-02-04 11:41:00,
2013-02-04 05:48:00,21.1,18.1,29.82,North,8,4.0,8.0,88,0.00,,,0.00,Wunderground v.1.15,2013-02-04 11:48:00,
2013-02-04 05:54:00,20.9,17.9,29.83,ENE,57,3.0,9.0,88,0.00,,,0.00,Wunderground v.1.15,2013-02-04 11:54:00,
2013-02-04 05:59:00,20.7,17.7,29.83,North,349,3.0,3.0,88,0.00,,,0.00,Wunderground v.1.15,2013-02-04 11:59:00,
2013-02-04 06:06:00,20.3,17.3,29.83,North,360,3.0,8.0,88,0.00,,,0.00,Wunderground v.1.15,2013-02-04 12:06:00,
2013-02-04 06:12:00,19.9,16.9,29.83,NNE,19,3.0,8.0,88,0.00,,,0.00,Wunderground v.1.15,2013-02-04 12:12:00,
2013-02-04 06:18:00,19.6,16.6,29.83,NNE,18,3.0,8.0,88,0.00,,,0.00,Wunderground v.1.15,2013-02-04 12:18:00,
2013-02-04 06:24:00,19.2,16.5,29.84,NE,42,4.0,8.0,89,0.00,,,0.00,Wunderground v.1.15,2013-02-04 12:24:00,
2013-02-04 06:29:00,18.9,16.2,29.84,ENE,77,3.0,3.0,89,0.00,,,0.00,Wunderground v.1.15,2013-02-04 12:29:00,
2013-02-04 06:36:00,18.5,15.5,29.84,NNE,25,3.0,8.0,88,0.00,,,0.00,Wunderground v.1.15,2013-02-04 12:36:00,
2013-02-04 06:41:00,18.1,15.4,29.85,North,349,5.0,8.0,89,0.00,,,0.00,Wunderground v.1.15,2013-02-04 12:41:00,
2013-02-04 06:48:00,18.0,15.3,29.85,North,11,5.0,8.0,89,0.00,,,0.00,Wunderground v.1.15,2013-02-04 12:48:00,
2013-02-04 06:54:00,17.8,15.1,29.85,ENE,70,5.0,8.0,89,0.00,,,0.00,Wunderground v.1.15,2013-02-04 12:54:00,
2013-02-04 06:59:00,17.7,15.0,29.86,North,357,5.0,5.0,89,0.00,,,0.00,Wunderground v.1.15,2013-02-04 12:59:00,
2013-02-04 07:06:00,17.6,14.9,29.86,NE,47,4.0,8.0,89,0.00,,,0.00,Wunderground v.1.15,2013-02-04 13:06:00,
2013-02-04 07:12:00,17.5,14.8,29.86,North,351,3.0,6.0,89,0.00,,,0.00,Wunderground v.1.15,2013-02-04 13:12:00,
2013-02-04 07:17:00,17.3,14.6,29.86,ENE,75,3.0,8.0,89,0.00,,,0.00,Wunderground v.1.15,2013-02-04 13:17:00,
2013-02-04 07:24:00,17.1,14.4,29.87,NE,54,4.0,8.0,89,0.00,,,0.00,Wunderground v.1.15,2013-02-04 13:24:00,
2013-02-04 07:30:00,17.0,14.3,29.87,NNW,335,3.0,8.0,89,0.00,,,0.00,Wunderground v.1.15,2013-02-04 13:30:00,
2013-02-04 07:36:00,16.8,14.1,29.88,NE,53,4.0,8.0,89,0.00,,,0.00,Wunderground v.1.15,2013-02-04 13:36:00,
2013-02-04 07:42:00,16.9,14.2,29.88,NNW,345,4.0,9.0,89,0.00,,,0.00,Wunderground v.1.15,2013-02-04 13:42:00,
2013-02-04 07:47:00,17.0,14.3,29.89,NNE,20,4.0,9.0,89,0.00,,,0.00,Wunderground v.1.15,2013-02-04 13:47:00,
2013-02-04 07:54:00,17.0,14.3,29.89,NNE,27,5.0,8.0,89,0.00,,,0.00,Wunderground v.1.15,2013-02-04 13:54:00,
2013-02-04 08:00:00,17.1,14.2,29.89,ENE,75,4.0,4.0,88,0.00,,,0.00,Wunderground v.1.15,2013-02-04 14:00:00,
2013-02-04 08:06:00,17.2,14.3,29.89,NNE,33,4.0,8.0,88,0.00,,,0.00,Wunderground v.1.15,2013-02-04 14:06:00,
2013-02-04 08:12:00,17.3,14.4,29.89,NE,54,5.0,8.0,88,0.00,,,0.00,Wunderground v.1.15,2013-02-04 14:12:00,
2013-02-04 08:18:00,17.5,14.6,29.90,North,4,5.0,9.0,88,0.00,,,0.00,Wunderground v.1.15,2013-02-04 14:18:00,
2013-02-04 08:24:00,17.5,14.3,29.90,NNE,32,4.0,8.0,87,0.00,,,0.00,Wunderground v.1.15,2013-02-04 14:24:00,
2013-02-04 08:30:00,17.5,14.3,29.90,NNE,32,4.0,8.0,87,0.00,,,0.00,Wunderground v.1.15,2013-02-04 14:30:00,
2013-02-04 08:35:00,17.4,13.9,29.91,NNE,12,5.0,11.0,86,0.00,,,0.00,Wunderground v.1.15,2013-02-04 14:35:00,
2013-02-04 08:42:00,17.3,13.8,29.91,NNE,20,6.0,8.0,86,0.00,,,0.00,Wunderground v.1.15,2013-02-04 14:42:00,
2013-02-04 08:48:00,17.4,13.9,29.92,NE,41,6.0,8.0,86,0.00,,,0.00,Wunderground v.1.15,2013-02-04 14:48:00,
2013-02-04 08:53:00,17.6,14.1,29.91,NE,44,4.0,8.0,86,0.00,,,0.00,Wunderground v.1.15,2013-02-04 14:53:00,
2013-02-04 09:00:00,17.7,14.2,29.91,ENE,78,3.0,12.0,86,0.00,,,0.00,Wunderground v.1.15,2013-02-04 15:00:00,
2013-02-04 09:06:00,17.7,14.2,29.91,NNW,332,5.0,12.0,86,0.00,,,0.00,Wunderground v.1.15,2013-02-04 15:06:00,
2013-02-04 09:11:00,17.9,14.4,29.92,NNW,346,4.0,8.0,86,0.00,,,0.00,Wunderground v.1.15,2013-02-04 15:11:00,
2013-02-04 09:18:00,17.6,14.1,29.92,NNW,340,4.0,8.0,86,0.00,,,0.00,Wunderground v.1.15,2013-02-04 15:18:00,
2013-02-04 09:24:00,17.5,14.0,29.92,North,354,5.0,8.0,86,0.00,,,0.00,Wunderground v.1.15,2013-02-04 15:24:00,
2013-02-04 09:29:00,17.5,14.0,29.92,NNW,347,5.0,5.0,86,0.00,,,0.00,Wunderground v.1.15,2013-02-04 15:29:00,
2013-02-04 09:36:00,17.5,13.8,29.92,NNE,19,5.0,8.0,85,0.00,,,0.00,Wunderground v.1.15,2013-02-04 15:36:00,
2013-02-04 09:42:00,17.6,14.1,29.92,NE,50,4.0,8.0,86,0.00,,,0.00,Wunderground v.1.15,2013-02-04 15:42:00,
2013-02-04 09:47:00,17.5,13.8,29.92,WNW,301,4.0,8.0,85,0.00,,,0.00,Wunderground v.1.15,2013-02-04 15:47:00,
2013-02-04 09:54:00,17.8,14.1,29.92,North,357,4.0,8.0,85,0.00,,,0.00,Wunderground v.1.15,2013-02-04 15:54:00,
2013-02-04 10:00:00,17.7,13.7,29.92,NE,54,4.0,8.0,84,0.00,,,0.00,Wunderground v.1.15,2013-02-04 16:00:00,
2013-02-04 10:05:00,18.0,14.0,29.93,East,94,5.0,9.0,84,0.00,,,0.00,Wunderground v.1.15,2013-02-04 16:05:00,
2013-02-04 10:12:00,18.2,13.9,29.94,North,360,5.0,8.0,83,0.00,,,0.00,Wunderground v.1.15,2013-02-04 16:12:00,
2013-02-04 10:17:00,18.5,13.9,29.94,North,351,4.0,8.0,82,0.00,,,0.00,Wunderground v.1.15,2013-02-04 16:17:00,
2013-02-04 10:24:00,18.4,13.8,29.95,North,5,4.0,8.0,82,0.00,,,0.00,Wunderground v.1.15,2013-02-04 16:24:00,
2013-02-04 10:30:00,18.5,13.6,29.95,NNW,343,4.0,8.0,81,0.00,,,0.00,Wunderground v.1.15,2013-02-04 16:30:00,
2013-02-04 10:35:00,18.5,13.9,29.94,NNE,25,4.0,8.0,82,0.00,,,0.00,Wunderground v.1.15,2013-02-04 16:35:00,
2013-02-04 10:42:00,18.6,13.7,29.94,NNE,25,5.0,9.0,81,0.00,,,0.00,Wunderground v.1.15,2013-02-04 16:42:00,
2013-02-04 10:48:00,18.7,13.8,29.94,NNE,22,5.0,9.0,81,0.00,,,0.00,Wunderground v.1.15,2013-02-04 16:48:00,
2013-02-04 10:53:00,19.0,14.1,29.95,East,81,5.0,8.0,81,0.00,,,0.00,Wunderground v.1.15,2013-02-04 16:53:00,
2013-02-04 11:00:00,18.9,13.7,29.96,NW,326,4.0,8.0,80,0.00,,,0.00,Wunderground v.1.15,2013-02-04 17:00:00,
2013-02-04 11:06:00,19.0,13.8,29.97,NW,318,4.0,8.0,80,0.00,,,0.00,Wunderground v.1.15,2013-02-04 17:06:00,
2013-02-04 11:12:00,19.0,13.8,29.97,NNE,19,4.0,8.0,80,0.00,,,0.00,Wunderground v.1.15,2013-02-04 17:12:00,
2013-02-04 11:18:00,19.2,14.0,29.97,North,352,5.0,9.0,80,0.00,,,0.00,Wunderground v.1.15,2013-02-04 17:18:00,
2013-02-04 11:24:00,19.3,14.1,29.98,ENE,63,5.0,8.0,80,0.00,,,0.00,Wunderground v.1.15,2013-02-04 17:24:00,
2013-02-04 11:30:00,19.4,14.2,29.99,NW,323,5.0,5.0,80,0.00,,,0.00,Wunderground v.1.15,2013-02-04 17:30:00,
2013-02-04 11:36:00,19.5,14.0,29.99,North,5,5.0,8.0,79,0.00,,,0.00,Wunderground v.1.15,2013-02-04 17:36:00,
2013-02-04 11:42:00,19.7,14.0,29.99,NNE,22,4.0,8.0,78,0.00,,,0.00,Wunderground v.1.15,2013-02-04 17:42:00,
2013-02-04 11:48:00,19.8,14.3,29.99,NE,52,4.0,8.0,79,0.00,,,0.00,Wunderground v.1.15,2013-02-04 17:48:00,
2013-02-04 11:54:00,19.6,14.1,29.99,NW,304,4.0,8.0,79,0.00,,,0.00,Wunderground v.1.15,2013-02-04 17:54:00,
2013-02-04 12:00:00,19.7,14.0,29.98,NNW,332,5.0,5.0,78,0.00,,,0.00,Wunderground v.1.15,2013-02-04 18:00:00,
2013-02-04 12:06:00,19.7,14.0,29.98,NW,304,3.0,8.0,78,0.00,,,0.00,Wunderground v.1.15,2013-02-04 18:06:00,
2013-02-04 12:12:00,19.7,14.2,29.98,NNW,335,3.0,8.0,79,0.00,,,0.00,Wunderground v.1.15,2013-02-04 18:12:00,
2013-02-04 12:18:00,19.8,14.0,29.98,NNW,328,3.0,8.0,78,0.00,,,0.00,Wunderground v.1.15,2013-02-04 18:18:00,
2013-02-04 12:24:00,19.9,13.9,29.97,NNW,338,3.0,8.0,77,0.00,,,0.00,Wunderground v.1.15,2013-02-04 18:24:00,
2013-02-04 12:30:00,20.0,13.9,29.97,NNW,342,3.0,3.0,77,0.00,,,0.00,Wunderground v.1.15,2013-02-04 18:30:00,
2013-02-04 12:36:00,20.0,13.6,29.96,NE,43,4.0,8.0,76,0.00,,,0.00,Wunderground v.1.15,2013-02-04 18:36:00,
2013-02-04 12:42:00,20.4,14.0,29.96,NW,326,4.0,8.0,76,0.00,,,0.00,Wunderground v.1.15,2013-02-04 18:42:00,
2013-02-04 12:48:00,20.6,13.9,29.95,NW,326,3.0,8.0,75,0.00,,,0.00,Wunderground v.1.15,2013-02-04 18:48:00,
2013-02-04 12:54:00,20.5,14.1,29.94,NW,308,3.0,7.0,76,0.00,,,0.00,Wunderground v.1.15,2013-02-04 18:54:00,
2013-02-04 13:00:00,20.8,14.7,29.94,NE,37,3.0,8.0,77,0.00,,,0.00,Wunderground v.1.15,2013-02-04 19:00:00,
2013-02-04 13:06:00,20.9,14.2,29.94,ENE,64,3.0,8.0,75,0.00,,,0.00,Wunderground v.1.15,2013-02-04 19:06:00,
2013-02-04 13:12:00,20.6,14.2,29.93,NNE,20,4.0,5.0,76,0.00,,,0.00,Wunderground v.1.15,2013-02-04 19:12:00,
2013-02-04 13:18:00,20.8,14.1,29.93,North,11,3.0,8.0,75,0.00,,,0.00,Wunderground v.1.15,2013-02-04 19:18:00,
2013-02-04 13:24:00,20.5,13.8,29.93,NNE,23,3.0,8.0,75,0.00,,,0.00,Wunderground v.1.15,2013-02-04 19:24:00,
2013-02-04 13:30:00,20.4,13.7,29.93,North,6,4.0,4.0,75,0.00,,,0.00,Wunderground v.1.15,2013-02-04 19:30:00,
2013-02-04 13:36:00,20.8,14.1,29.93,NNW,335,3.0,8.0,75,0.00,,,0.00,Wunderground v.1.15,2013-02-04 19:36:00,
2013-02-04 13:42:00,21.0,14.3,29.93,NNE,29,3.0,8.0,75,0.00,,,0.00,Wunderground v.1.15,2013-02-04 19:42:00,
2013-02-04 13:48:00,20.9,13.9,29.93,North,4,3.0,8.0,74,0.00,,,0.00,Wunderground v.1.15,2013-02-04 19:48:00,
2013-02-04 13:54:00,20.8,14.1,29.92,NNW,347,3.0,8.0,75,0.00,,,0.00,Wunderground v.1.15,2013-02-04 19:54:00,
2013-02-04 14:00:00,21.2,14.5,29.92,NE,51,2.0,8.0,75,0.00,,,0.00,Wunderground v.1.15,2013-02-04 20:00:00,
2013-02-04 14:06:00,21.2,14.5,29.92,East,86,3.0,8.0,75,0.00,,,0.00,Wunderground v.1.15,2013-02-04 20:06:00,
2013-02-04 14:12:00,21.2,14.8,29.92,NNE,20,3.0,8.0,76,0.00,,,0.00,Wunderground v.1.15,2013-02-04 20:12:00,
2013-02-04 14:18:00,21.2,14.2,29.92,ENE,69,3.0,8.0,74,0.00,,,0.00,Wunderground v.1.15,2013-02-04 20:18:00,
2013-02-04 14:24:00,21.2,14.5,29.92,ENE,65,3.0,8.0,75,0.00,,,0.00,Wunderground v.1.15,2013-02-04 20:24:00,
2013-02-04 14:30:00,20.9,14.2,29.92,NW,326,3.0,3.0,75,0.00,,,0.00,Wunderground v.1.15,2013-02-04 20:30:00,
2013-02-04 14:36:00,21.2,14.2,29.92,NE,45,3.0,8.0,74,0.00,,,0.00,Wunderground v.1.15,2013-02-04 20:36:00,
2013-02-04 14:42:00,21.5,14.8,29.92,North,9,2.0,8.0,75,0.00,,,0.00,Wunderground v.1.15,2013-02-04 20:42:00,
2013-02-04 14:48:00,21.7,14.7,29.93,NE,37,2.0,8.0,74,0.00,,,0.00,Wunderground v.1.15,2013-02-04 20:48:00,
2013-02-04 14:54:00,21.7,14.7,29.93,NNE,25,3.0,8.0,74,0.00,,,0.00,Wunderground v.1.15,2013-02-04 20:54:00,
2013-02-04 15:00:00,21.9,14.6,29.94,NW,314,3.0,8.0,73,0.00,,,0.00,Wunderground v.1.15,2013-02-04 21:00:00,
2013-02-04 15:06:00,22.0,14.7,29.95,NNW,335,3.0,8.0,73,0.00,,,0.00,Wunderground v.1.15,2013-02-04 21:06:00,
2013-02-04 15:12:00,22.2,15.2,29.95,West,266,3.0,8.0,74,0.00,,,0.00,Wunderground v.1.15,2013-02-04 21:12:00,
2013-02-04 15:18:00,22.1,14.4,29.95,NNW,329,2.0,8.0,72,0.00,,,0.00,Wunderground v.1.15,2013-02-04 21:18:00,
2013-02-04 15:24:00,21.8,14.2,29.96,NNW,340,3.0,8.0,72,0.00,,,0.00,Wunderground v.1.15,2013-02-04 21:24:00,
2013-02-04 15:30:00,21.8,14.2,29.96,NNW,331,2.0,2.0,72,0.00,,,0.00,Wunderground v.1.15,2013-02-04 21:30:00,
2013-02-04 15:36:00,22.1,14.8,29.96,NW,324,2.0,8.0,73,0.00,,,0.00,Wunderground v.1.15,2013-02-04 21:36:00,
2013-02-04 15:42:00,22.4,15.1,29.95,NW,309,1.0,3.0,73,0.00,,,0.00,Wunderground v.1.15,2013-02-04 21:42:00,
2013-02-04 15:48:00,22.7,14.7,29.95,NW,325,2.0,8.0,71,0.00,,,0.00,Wunderground v.1.15,2013-02-04 21:48:00,
2013-02-04 15:54:00,22.6,14.3,29.95,NNW,335,2.0,8.0,70,0.00,,,0.00,Wunderground v.1.15,2013-02-04 21:54:00,
2013-02-04 16:00:00,22.7,14.7,29.96,NW,314,2.0,2.0,71,0.00,,,0.00,Wunderground v.1.15,2013-02-04 22:00:00,
2013-02-04 16:06:00,22.7,14.7,29.96,NNW,329,1.0,8.0,71,0.00,,,0.00,Wunderground v.1.15,2013-02-04 22:06:00,
2013-02-04 16:12:00,22.3,14.3,29.95,NNE,18,2.0,8.0,71,0.00,,,0.00,Wunderground v.1.15,2013-02-04 22:12:00,
2013-02-04 16:18:00,22.3,14.3,29.95,NE,51,2.0,8.0,71,0.00,,,0.00,Wunderground v.1.15,2013-02-04 22:18:00,
2013-02-04 16:24:00,22.0,14.0,29.95,NNE,25,2.0,8.0,71,0.00,,,0.00,Wunderground v.1.15,2013-02-04 22:24:00,
2013-02-04 16:30:00,21.7,13.7,29.95,NW,312,2.0,2.0,71,0.00,,,0.00,Wunderground v.1.15,2013-02-04 22:30:00,
2013-02-04 16:36:00,21.2,13.6,29.95,North,5,2.0,8.0,72,0.00,,,0.00,Wunderground v.1.15,2013-02-04 22:36:00,
2013-02-04 16:42:00,20.9,13.3,29.95,NW,319,1.0,8.0,72,0.00,,,0.00,Wunderground v.1.15,2013-02-04 22:42:00,
2013-02-04 16:48:00,20.7,12.8,29.94,NW,314,1.0,8.0,71,0.00,,,0.00,Wunderground v.1.15,2013-02-04 22:48:00,
2013-02-04 16:54:00,20.5,12.9,29.94,NE,47,1.0,8.0,72,0.00,,,0.00,Wunderground v.1.15,2013-02-04 22:54:00,
2013-02-04 17:00:00,20.2,12.9,29.94,North,4,1.0,8.0,73,0.00,,,0.00,Wunderground v.1.15,2013-02-04 23:00:00,
2013-02-04 17:06:00,20.1,12.8,29.94,NNE,19,1.0,8.0,73,0.00,,,0.00,Wunderground v.1.15,2013-02-04 23:06:00,
2013-02-04 17:12:00,20.0,12.7,29.94,NW,305,0.0,8.0,73,0.00,,,0.00,Wunderground v.1.15,2013-02-04 23:12:00,
2013-02-04 17:18:00,19.8,12.5,29.94,NNW,347,1.0,8.0,73,0.00,,,0.00,Wunderground v.1.15,2013-02-04 23:18:00,
2013-02-04 17:24:00,19.7,12.8,29.94,NE,41,1.0,8.0,74,0.00,,,0.00,Wunderground v.1.15,2013-02-04 23:24:00,
2013-02-04 17:30:00,19.6,12.7,29.95,WNW,301,1.0,8.0,74,0.00,,,0.00,Wunderground v.1.15,2013-02-04 23:30:00,
2013-02-04 17:36:00,19.4,12.5,29.95,NW,310,1.0,8.0,74,0.00,,,0.00,Wunderground v.1.15,2013-02-04 23:36:00,
2013-02-04 17:42:00,19.3,12.4,29.95,NW,307,2.0,8.0,74,0.00,,,0.00,Wunderground v.1.15,2013-02-04 23:42:00,
2013-02-04 17:48:00,19.2,12.3,29.95,North,355,1.0,8.0,74,0.00,,,0.00,Wunderground v.1.15,2013-02-04 23:48:00,
2013-02-04 17:54:00,19.2,12.6,29.95,NE,45,1.0,8.0,75,0.00,,,0.00,Wunderground v.1.15,2013-02-04 23:54:00,
2013-02-04 18:00:00,19.0,12.4,29.95,NNW,330,2.0,2.0,75,0.00,,,0.00,Wunderground v.1.15,2013-02-05 00:00:00,
2013-02-04 18:06:00,18.9,12.3,29.95,North,9,1.0,8.0,75,0.00,,,0.00,Wunderground v.1.15,2013-02-05 00:06:00,
2013-02-04 18:12:00,18.7,12.1,29.94,NW,316,1.0,8.0,75,0.00,,,0.00,Wunderground v.1.15,2013-02-05 00:12:00,
2013-02-04 18:18:00,18.6,12.3,29.95,NW,314,0.0,8.0,76,0.00,,,0.00,Wunderground v.1.15,2013-02-05 00:18:00,
2013-02-04 18:24:00,18.6,12.0,29.95,NW,314,0.0,8.0,75,0.00,,,0.00,Wunderground v.1.15,2013-02-05 00:24:00,
2013-02-04 18:30:00,18.6,12.3,29.95,North,9,0.0,8.0,76,0.00,,,0.00,Wunderground v.1.15,2013-02-05 00:30:00,
2013-02-04 18:36:00,18.5,12.2,29.95,NW,309,0.0,8.0,76,0.00,,,0.00,Wunderground v.1.15,2013-02-05 00:36:00,
2013-02-04 18:42:00,18.5,12.5,29.95,NE,41,0.0,8.0,77,0.00,,,0.00,Wunderground v.1.15,2013-02-05 00:42:00,
2013-02-04 18:48:00,18.5,12.5,29.95,East,82,0.0,8.0,77,0.00,,,0.00,Wunderground v.1.15,2013-02-05 00:48:00,
2013-02-04 18:54:00,18.4,12.4,29.95,NE,44,0.0,8.0,77,0.00,,,0.00,Wunderground v.1.15,2013-02-05 00:54:00,
2013-02-04 19:00:00,18.3,12.3,29.95,ENE,65,0.0,8.0,77,0.00,,,0.00,Wunderground v.1.15,2013-02-05 01:00:00,
2013-02-04 19:06:00,18.3,12.3,29.94,East,98,0.0,8.0,77,0.00,,,0.00,Wunderground v.1.15,2013-02-05 01:06:00,
2013-02-04 19:12:00,18.2,12.5,29.95,East,98,0.0,8.0,78,0.00,,,0.00,Wunderground v.1.15,2013-02-05 01:12:00,
2013-02-04 19:18:00,18.1,12.1,29.94,East,98,0.0,8.0,77,0.00,,,0.00,Wunderground v.1.15,2013-02-05 01:18:00,
2013-02-04 19:24:00,17.9,12.2,29.94,East,97,0.0,8.0,78,0.00,,,0.00,Wunderground v.1.15,2013-02-05 01:24:00,
2013-02-04 19:30:00,17.7,12.0,29.94,East,98,0.0,8.0,78,0.00,,,0.00,Wunderground v.1.15,2013-02-05 01:30:00,
2013-02-04 19:36:00,17.5,11.8,29.93,ESE,103,0.0,8.0,78,0.00,,,0.00,Wunderground v.1.15,2013-02-05 01:36:00,
2013-02-04 19:42:00,17.4,12.0,29.93,ESE,103,0.0,8.0,79,0.00,,,0.00,Wunderground v.1.15,2013-02-05 01:42:00,
2013-02-04 19:48:00,17.3,12.2,29.93,ESE,103,0.0,8.0,80,0.00,,,0.00,Wunderground v.1.15,2013-02-05 01:48:00,
2013-02-04 19:54:00,17.0,11.6,29.92,ESE,103,0.0,8.0,79,0.00,,,0.00,Wunderground v.1.15,2013-02-05 01:54:00,
2013-02-04 20:00:00,16.4,11.3,29.92,SE,138,0.0,8.0,80,0.00,,,0.00,Wunderground v.1.15,2013-02-05 02:00:00,
2013-02-04 20:06:00,16.3,11.5,29.92,SE,141,1.0,8.0,81,0.00,,,0.00,Wunderground v.1.15,2013-02-05 02:06:00,
2013-02-04 20:12:00,16.1,11.3,29.91,SE,133,1.0,8.0,81,0.00,,,0.00,Wunderground v.1.15,2013-02-05 02:12:00,
2013-02-04 20:18:00,16.0,11.2,29.91,SE,137,1.0,8.0,81,0.00,,,0.00,Wunderground v.1.15,2013-02-05 02:18:00,
2013-02-04 20:24:00,15.7,11.2,29.92,SE,132,0.0,8.0,82,0.00,,,0.00,Wunderground v.1.15,2013-02-05 02:24:00,
2013-02-04 20:30:00,15.5,11.0,29.91,ESE,119,1.0,8.0,82,0.00,,,0.00,Wunderground v.1.15,2013-02-05 02:30:00,
2013-02-04 20:36:00,15.7,11.2,29.91,SE,131,1.0,8.0,82,0.00,,,0.00,Wunderground v.1.15,2013-02-05 02:36:00,
2013-02-04 20:42:00,15.6,11.1,29.91,SE,129,1.0,8.0,82,0.00,,,0.00,Wunderground v.1.15,2013-02-05 02:42:00,
2013-02-04 20:48:00,15.4,10.9,29.91,SE,139,1.0,8.0,82,0.00,,,0.00,Wunderground v.1.15,2013-02-05 02:48:00,
2013-02-04 20:54:00,15.0,10.5,29.91,SE,132,1.0,8.0,82,0.00,,,0.00,Wunderground v.1.15,2013-02-05 02:54:00,
2013-02-04 21:00:00,14.8,10.6,29.91,SE,129,1.0,8.0,83,0.00,,,0.00,Wunderground v.1.15,2013-02-05 03:00:00,
2013-02-04 21:06:00,14.7,10.5,29.91,SE,124,1.0,8.0,83,0.00,,,0.00,Wunderground v.1.15,2013-02-05 03:06:00,
2013-02-04 21:12:00,14.6,10.4,29.91,SE,124,0.0,8.0,83,0.00,,,0.00,Wunderground v.1.15,2013-02-05 03:12:00,
2013-02-04 21:18:00,14.4,10.2,29.91,SE,135,1.0,8.0,83,0.00,,,0.00,Wunderground v.1.15,2013-02-05 03:18:00,
2013-02-04 21:24:00,14.5,10.5,29.91,SE,135,2.0,8.0,84,0.00,,,0.00,Wunderground v.1.15,2013-02-05 03:24:00,
2013-02-04 21:30:00,14.4,10.4,29.90,ESE,116,2.0,8.0,84,0.00,,,0.00,Wunderground v.1.15,2013-02-05 03:30:00,
2013-02-04 21:36:00,14.5,10.5,29.90,ESE,115,2.0,8.0,84,0.00,,,0.00,Wunderground v.1.15,2013-02-05 03:36:00,
2013-02-04 21:42:00,14.6,10.4,29.90,SE,126,2.0,8.0,83,0.00,,,0.00,Wunderground v.1.15,2013-02-05 03:42:00,
2013-02-04 21:48:00,14.5,10.5,29.90,SE,141,2.0,8.0,84,0.00,,,0.00,Wunderground v.1.15,2013-02-05 03:48:00,
2013-02-04 21:54:00,14.5,10.5,29.90,SE,134,2.0,8.0,84,0.00,,,0.00,Wunderground v.1.15,2013-02-05 03:54:00,
2013-02-04 22:00:00,14.5,10.5,29.90,SE,131,2.0,8.0,84,0.00,,,0.00,Wunderground v.1.15,2013-02-05 04:00:00,
2013-02-04 22:06:00,14.5,10.5,29.90,SE,141,1.0,8.0,84,0.00,,,0.00,Wunderground v.1.15,2013-02-05 04:06:00,
2013-02-04 22:12:00,14.6,10.9,29.90,SSE,150,1.0,8.0,85,0.00,,,0.00,Wunderground v.1.15,2013-02-05 04:12:00,
2013-02-04 22:18:00,14.8,10.8,29.90,South,169,1.0,8.0,84,0.00,,,0.00,Wunderground v.1.15,2013-02-05 04:18:00,
2013-02-04 22:24:00,15.0,11.0,29.90,SE,129,1.0,8.0,84,0.00,,,0.00,Wunderground v.1.15,2013-02-05 04:24:00,
2013-02-04 22:30:00,15.2,11.2,29.89,SE,139,2.0,8.0,84,0.00,,,0.00,Wunderground v.1.15,2013-02-05 04:30:00,
2013-02-04 22:36:00,15.3,11.3,29.90,SSE,149,1.0,8.0,84,0.00,,,0.00,Wunderground v.1.15,2013-02-05 04:36:00,
2013-02-04 22:42:00,15.2,11.2,29.89,ESE,120,1.0,8.0,84,0.00,,,0.00,Wunderground v.1.15,2013-02-05 04:42:00,
2013-02-04 22:48:00,15.2,11.2,29.89,South,172,2.0,8.0,84,0.00,,,0.00,Wunderground v.1.15,2013-02-05 04:48:00,
2013-02-04 22:54:00,15.4,11.4,29.89,SSE,161,2.0,8.0,84,0.00,,,0.00,Wunderground v.1.15,2013-02-05 04:54:00,
2013-02-04 23:00:00,15.5,11.5,29.90,SE,142,1.0,8.0,84,0.00,,,0.00,Wunderground v.1.15,2013-02-05 05:00:00,
2013-02-04 23:02:00,15.5,11.5,29.90,SE,143,1.0,8.0,84,0.00,,,0.00,Wunderground v.1.15,2013-02-05 05:02:00,
2013-02-04 23:08:00,15.6,11.6,29.90,South,170,1.0,8.0,84,0.00,,,0.00,Wunderground v.1.15,2013-02-05 05:08:00,
2013-02-04 23:14:00,15.5,11.5,29.91,South,191,2.0,8.0,84,0.00,,,0.00,Wunderground v.1.15,2013-02-05 05:14:00,
2013-02-04 23:20:00,15.5,11.5,29.91,SSE,152,2.0,2.0,84,0.00,,,0.00,Wunderground v.1.15,2013-02-05 05:20:00,
2013-02-04 23:26:00,15.6,11.9,29.91,SSE,149,1.0,8.0,85,0.00,,,0.00,Wunderground v.1.15,2013-02-05 05:26:00,
2013-02-04 23:30:00,15.8,12.1,29.91,South,186,0.0,8.0,85,0.00,,,0.00,Wunderground v.1.15,2013-02-05 05:30:00,
2013-02-04 23:36:00,16.0,12.3,29.91,SE,139,0.0,8.0,85,0.00,,,0.00,Wunderground v.1.15,2013-02-05 05:36:00,
2013-02-04 23:42:00,16.2,12.5,29.91,SSW,194,1.0,8.0,85,0.00,,,0.00,Wunderground v.1.15,2013-02-05 05:42:00,
2013-02-04 23:48:00,16.4,12.7,29.91,SSE,167,1.0,8.0,85,0.00,,,0.00,Wunderground v.1.15,2013-02-05 05:48:00,
2013-02-04 23:54:00,16.6,12.9,29.90,SE,134,2.0,8.0,85,0.00,,,0.00,Wunderground v.1.15,2013-02-05 05:54:00,